Time;durP1;ratioP1;P1;durP2;ratioP2;P2;SDS_P1;SDS_P2;PMS_P1;PMS_P2;Temp;Humidity;BMP_temperature;BMP_pressure;BME280_temperature;BME280_humidity;BME280_pressure;Samples;Min_cycle;Max_cycle;Signal;HPM_P1;HPM_P2
2022/07/08 00:01:04;;;;;;;5.88;5.03;;;;;;;17.57;67.83;94800.28;5137492;27;20027;-72
2022/07/08 00:03:30;;;;;;;6.85;5.05;;;;;;;17.55;67.42;94797.03;5143114;27;20023;-72
2022/07/08 00:05:56;;;;;;;4.78;4.28;;;;;;;17.62;66.84;94800.59;5138742;27;20019;-72
2022/07/08 00:08:21;;;;;;;4.22;3.83;;;;;;;17.63;66.06;94790.91;5112885;27;20023;-73
2022/07/08 00:10:47;;;;;;;4.88;4.45;;;;;;;17.56;65.76;94787.34;5128062;27;20476;-72
2022/07/08 00:13:12;;;;;;;4.70;4.20;;;;;;;17.49;65.94;94783.75;5145775;27;20039;-72
2022/07/08 00:15:38;;;;;;;5.97;4.32;;;;;;;17.54;65.39;94776.19;5153656;27;20098;-72
2022/07/08 00:18:03;;;;;;;5.32;4.20;;;;;;;17.52;65.37;94762.38;5135979;27;20038;-72
2022/07/08 00:20:29;;;;;;;4.68;4.20;;;;;;;17.56;65.41;94774.22;5147163;27;20477;-72
2022/07/08 00:22:54;;;;;;;6.55;4.45;;;;;;;17.53;65.49;94770.13;5128992;27;20041;-72
2022/07/08 00:25:20;;;;;;;5.90;4.45;;;;;;;17.55;65.25;94773.41;5127249;27;20035;-72
2022/07/08 00:27:45;;;;;;;6.38;4.68;;;;;;;17.53;65.34;94779.81;5151149;27;20049;-72
2022/07/08 00:30:12;;;;;;;5.57;4.10;;;;;;;17.59;64.99;94773.88;5127521;27;20438;-72
2022/07/08 00:32:37;;;;;;;4.97;4.20;;;;;;;17.48;65.19;94766.38;5129305;27;20023;-72
2022/07/08 00:35:03;;;;;;;6.18;4.68;;;;;;;17.57;65.51;94779.28;5125442;27;20457;-72
2022/07/08 00:37:29;;;;;;;5.35;4.32;;;;;;;17.61;65.69;94785.84;5138664;27;20028;-73
2022/07/08 00:39:54;;;;;;;5.60;4.78;;;;;;;17.48;66.75;94780.31;5096680;27;20070;-72
2022/07/08 00:42:19;;;;;;;5.22;4.70;;;;;;;17.31;67.27;94787.41;5125897;28;20027;-72
2022/07/08 00:44:45;;;;;;;5.07;4.53;;;;;;;17.21;67.63;94763.16;5128871;27;20469;-72
2022/07/08 00:47:10;;;;;;;6.25;4.45;;;;;;;17.35;67.60;94772.94;5145497;27;20031;-72
2022/07/08 00:49:36;;;;;;;4.90;4.40;;;;;;;17.45;67.12;94771.97;5146087;27;20076;-72
2022/07/08 00:52:01;;;;;;;4.80;4.40;;;;;;;17.42;67.35;94773.94;5114473;27;20015;-72
2022/07/08 00:54:27;;;;;;;5.80;4.50;;;;;;;17.43;67.57;94780.81;5132422;27;20059;-72
2022/07/08 00:56:54;;;;;;;4.88;4.38;;;;;;;17.32;67.87;94782.97;5108654;27;20031;-72
2022/07/08 00:59:20;;;;;;;6.93;4.82;;;;;;;17.16;68.18;94770.72;5133145;27;20077;-72
2022/07/08 01:01:45;;;;;;;5.85;4.80;;;;;;;17.10;68.53;94774.03;5092886;27;20528;-72
2022/07/08 01:04:11;;;;;;;6.32;4.78;;;;;;;17.03;68.47;94771.25;5114190;27;20062;-72
2022/07/08 01:06:36;;;;;;;5.30;4.35;;;;;;;16.93;68.81;94768.81;5131213;27;20027;-72
2022/07/08 01:09:02;;;;;;;5.50;5.00;;;;;;;16.74;69.40;94775.22;5137781;27;20046;-72
2022/07/08 01:11:27;;;;;;;5.25;4.75;;;;;;;16.67;70.01;94776.03;5110182;27;20023;-73
2022/07/08 01:13:53;;;;;;;5.65;5.07;;;;;;;16.50;70.53;94778.66;5112820;27;20043;-72
2022/07/08 01:16:18;;;;;;;5.97;5.38;;;;;;;16.46;70.84;94779.97;5128277;27;20155;-72
2022/07/08 01:18:44;;;;;;;6.70;5.55;;;;;;;16.42;71.01;94785.72;5143922;27;20031;-72
2022/07/08 01:21:09;;;;;;;5.32;4.82;;;;;;;15.95;71.66;94708.53;5083854;28;20032;-73
2022/07/08 01:23:35;;;;;;;6.78;5.10;;;;;;;16.51;71.24;94782.09;5094756;28;20024;-72
2022/07/08 01:26:00;;;;;;;6.05;5.20;;;;;;;16.53;71.33;94770.47;5125591;27;20039;-72
2022/07/08 01:28:26;;;;;;;8.52;4.80;;;;;;;16.53;71.19;94765.22;5108746;27;20020;-72
2022/07/08 01:30:51;;;;;;;6.63;5.25;;;;;;;16.64;71.44;94776.38;5111613;27;20480;-72
2022/07/08 01:33:17;;;;;;;6.85;5.03;;;;;;;16.49;71.83;94766.53;5097203;27;20027;-72
2022/07/08 01:35:42;;;;;;;7.03;5.32;;;;;;;16.52;71.65;94770.66;5131975;27;20031;-72
2022/07/08 01:38:08;;;;;;;6.32;5.07;;;;;;;16.47;71.94;94775.56;5113139;27;20062;-72
2022/07/08 01:40:33;;;;;;;5.72;5.22;;;;;;;16.44;72.22;94771.47;5105473;27;20059;-72
2022/07/08 01:42:59;;;;;;;5.60;5.05;;;;;;;16.50;72.05;94783.91;5113437;27;20415;-72
2022/07/08 01:45:24;;;;;;;5.68;4.88;;;;;;;16.39;71.97;94771.13;5120343;27;20026;-72
2022/07/08 01:47:50;;;;;;;7.10;5.35;;;;;;;16.40;71.81;94788.47;5122949;27;20050;-72
2022/07/08 01:50:15;;;;;;;6.38;4.90;;;;;;;16.38;71.51;94773.91;5129277;27;20428;-72
2022/07/08 01:52:41;;;;;;;6.05;5.35;;;;;;;16.39;71.71;94778.19;5131978;27;20019;-72
2022/07/08 01:55:07;;;;;;;6.65;4.78;;;;;;;16.43;71.52;94777.66;5110075;27;20101;-72
2022/07/08 01:57:34;;;;;;;7.63;4.80;;;;;;;16.43;71.42;94776.84;5114904;27;20025;-73
2022/07/08 01:59:59;;;;;;;5.10;4.60;;;;;;;16.48;71.15;94778.00;5127237;27;20035;-72
2022/07/08 02:02:24;;;;;;;5.50;4.65;;;;;;;16.47;70.89;94765.88;5092587;28;20023;-72
2022/07/08 02:04:50;;;;;;;6.90;4.80;;;;;;;16.51;70.83;94775.03;5116956;27;20076;-72
2022/07/08 02:07:16;;;;;;;7.28;5.35;;;;;;;16.30;71.13;94780.78;5130962;27;20027;-72
2022/07/08 02:09:41;;;;;;;10.82;5.20;;;;;;;16.23;71.42;94784.22;5097538;27;20480;-72
2022/07/08 02:12:19;;;;;;;6.85;5.40;;;;;;;16.16;71.80;94780.59;5118595;27;20477;-72
2022/07/08 02:15:01;;;;;;;6.68;4.78;;;;;;;16.14;71.90;94775.53;5109317;28;20040;-72
2022/07/08 02:17:27;;;;;;;6.00;5.40;;;;;;;16.03;72.02;94781.09;5111680;27;20022;-72
2022/07/08 02:19:53;;;;;;;5.55;4.93;;;;;;;16.05;72.42;94789.59;5077645;27;20056;-72
2022/07/08 02:22:18;;;;;;;6.15;5.25;;;;;;;16.04;72.39;94782.72;5109518;28;20024;-72
2022/07/08 02:24:44;;;;;;;5.75;4.50;;;;;;;15.97;72.42;94784.34;5110577;28;20036;-72
2022/07/08 02:27:09;;;;;;;5.70;4.85;;;;;;;15.80;72.22;94768.59;5126485;27;20500;-72
2022/07/08 02:29:35;;;;;;;5.70;4.93;;;;;;;15.84;72.29;94790.03;5109602;28;20036;-72
2022/07/08 02:32:00;;;;;;;5.07;4.63;;;;;;;15.80;72.64;94786.13;5128400;27;20046;-72
2022/07/08 02:34:26;;;;;;;6.07;4.97;;;;;;;15.73;72.63;94785.09;5091814;28;20046;-72
2022/07/08 02:36:51;;;;;;;5.97;5.30;;;;;;;15.65;72.51;94783.22;5111604;27;20021;-74
2022/07/08 02:39:17;;;;;;;5.50;5.00;;;;;;;15.74;72.74;94798.03;5112627;27;20035;-72
2022/07/08 02:41:42;;;;;;;5.60;5.10;;;;;;;15.59;73.25;94800.41;5108265;28;20110;-72
2022/07/08 02:44:08;;;;;;;6.72;4.85;;;;;;;15.63;73.43;94808.78;5098735;27;20039;-72
2022/07/08 02:46:34;;;;;;;5.63;5.03;;;;;;;15.63;73.28;94804.34;5107189;27;20031;-73
2022/07/08 02:48:59;;;;;;;6.05;4.72;;;;;;;15.60;73.38;94791.59;5102797;28;20043;-72
2022/07/08 02:51:25;;;;;;;5.80;5.00;;;;;;;15.78;73.20;94801.16;5127144;27;20023;-72
2022/07/08 02:53:50;;;;;;;4.97;4.55;;;;;;;15.86;72.94;94801.19;5113017;27;20027;-72
2022/07/08 02:56:16;;;;;;;7.40;4.93;;;;;;;15.84;72.67;94797.91;5128512;27;20035;-72
2022/07/08 02:58:41;;;;;;;5.30;4.80;;;;;;;15.89;72.61;94806.09;5096709;27;20030;-72
2022/07/08 03:01:07;;;;;;;5.82;5.07;;;;;;;15.90;72.36;94805.09;5110445;27;20027;-72
2022/07/08 03:03:32;;;;;;;5.63;5.07;;;;;;;15.86;72.22;94806.41;5125909;27;20031;-72
2022/07/08 03:05:57;;;;;;;5.45;4.72;;;;;;;15.73;72.37;94796.38;5119170;27;20031;-72
2022/07/08 03:08:23;;;;;;;7.20;4.90;;;;;;;15.73;72.32;94799.00;5111358;27;20027;-72
2022/07/08 03:10:49;;;;;;;5.35;4.85;;;;;;;15.82;72.20;94800.69;5111761;27;20105;-72
2022/07/08 03:13:15;;;;;;;6.22;5.13;;;;;;;15.52;72.28;94744.44;5112231;27;20034;-72
2022/07/08 03:15:40;;;;;;;5.50;5.00;;;;;;;15.90;72.42;94796.44;5097905;27;20484;-72
2022/07/08 03:18:05;;;;;;;5.43;4.93;;;;;;;15.93;71.90;94796.94;5112392;27;20024;-72
2022/07/08 03:20:31;;;;;;;5.18;4.68;;;;;;;15.89;72.25;94793.00;5110405;27;20050;-72
2022/07/08 03:22:56;;;;;;;5.25;4.68;;;;;;;15.96;71.78;94796.59;5113440;27;20035;-72
2022/07/08 03:25:22;;;;;;;5.25;4.60;;;;;;;16.04;71.97;94796.63;5113526;27;20034;-72
2022/07/08 03:27:48;;;;;;;5.63;4.68;;;;;;;16.05;71.88;94795.66;5130163;27;20116;-72
2022/07/08 03:30:14;;;;;;;5.57;4.95;;;;;;;16.06;71.80;94791.25;5125257;27;20041;-72
2022/07/08 03:32:39;;;;;;;5.47;4.95;;;;;;;16.14;71.53;94793.06;5113355;27;20031;-72
2022/07/08 03:35:05;;;;;;;6.38;4.63;;;;;;;16.18;71.43;94796.97;5110834;27;20401;-72
2022/07/08 03:37:30;;;;;;;5.43;4.78;;;;;;;16.21;71.24;94794.03;5112241;28;20533;-73
2022/07/08 03:39:56;;;;;;;5.10;4.57;;;;;;;16.15;71.20;94790.25;5110570;28;20530;-72
2022/07/08 03:42:21;;;;;;;6.32;4.97;;;;;;;16.16;71.57;94798.94;5128918;28;20424;-72
2022/07/08 03:44:47;;;;;;;7.65;5.05;;;;;;;16.23;71.30;94802.56;5112192;28;20031;-72
2022/07/08 03:47:12;;;;;;;5.35;4.63;;;;;;;16.26;70.95;94799.63;5111143;28;20029;-72
2022/07/08 03:49:38;;;;;;;6.90;4.75;;;;;;;16.37;70.72;94801.91;5130669;27;20481;-72
2022/07/08 03:52:04;;;;;;;5.55;4.95;;;;;;;16.46;70.63;94803.56;5092138;28;20024;-72
2022/07/08 03:54:30;;;;;;;6.05;5.20;;;;;;;16.52;71.01;94802.13;5108824;28;20511;-72
2022/07/08 03:56:55;;;;;;;5.55;5.05;;;;;;;16.53;70.51;94803.75;5127154;28;20023;-72
2022/07/08 03:59:21;;;;;;;5.97;4.95;;;;;;;16.65;70.29;94814.72;5127753;28;20442;-72
2022/07/08 04:01:46;;;;;;;5.95;4.63;;;;;;;16.73;69.95;94809.47;5111334;28;20031;-72
2022/07/08 04:04:12;;;;;;;5.53;4.75;;;;;;;16.80;69.77;94810.50;5122211;28;20413;-72
2022/07/08 04:06:37;;;;;;;7.78;4.90;;;;;;;16.87;69.55;94806.19;5126091;28;20023;-72
2022/07/08 04:09:03;;;;;;;6.63;4.72;;;;;;;17.05;68.74;94805.19;5128180;27;20039;-72
2022/07/08 04:11:29;;;;;;;7.72;5.25;;;;;;;17.15;68.26;94803.22;5128122;28;20022;-72
2022/07/08 04:13:54;;;;;;;6.45;4.85;;;;;;;17.78;66.77;94805.00;5099491;28;20408;-72
2022/07/08 04:16:20;;;;;;;8.65;4.30;;;;;;;18.74;63.89;94809.00;5128531;28;20027;-72
2022/07/08 04:18:45;;;;;;;6.00;4.25;;;;;;;19.46;61.43;94804.22;5129932;27;20034;-72
2022/07/08 04:21:11;;;;;;;5.85;4.30;;;;;;;20.13;58.50;94806.69;5101710;28;20032;-72
2022/07/08 04:23:37;;;;;;;5.15;4.10;;;;;;;20.82;56.06;94800.09;5109937;28;20035;-72
2022/07/08 04:26:03;;;;;;;4.30;3.90;;;;;;;21.52;54.79;94812.41;5128782;27;20082;-72
2022/07/08 04:28:28;;;;;;;6.18;4.10;;;;;;;22.14;52.57;94808.00;5115305;27;20458;-72
2022/07/08 04:30:55;;;;;;;5.68;4.10;;;;;;;22.74;51.08;94795.75;5124182;27;20036;-72
2022/07/08 04:33:21;;;;;;;4.07;3.65;;;;;;;23.23;49.57;94796.38;5129884;27;20027;-73
2022/07/08 04:35:46;;;;;;;4.00;3.58;;;;;;;23.87;47.40;94805.44;5128349;27;20072;-73
2022/07/08 04:38:12;;;;;;;4.55;3.40;;;;;;;24.00;46.90;94801.91;5131235;27;20031;-72
2022/07/08 04:40:37;;;;;;;6.65;3.75;;;;;;;24.52;46.13;94798.22;5126191;27;20042;-73
2022/07/08 04:43:03;;;;;;;5.32;4.22;;;;;;;24.71;46.73;94809.75;5122191;27;20031;-73
2022/07/08 04:45:28;;;;;;;5.43;4.93;;;;;;;24.64;45.86;94800.19;5132052;27;20031;-73
2022/07/08 04:47:54;;;;;;;7.35;5.25;;;;;;;24.40;46.45;94794.56;5117866;27;20035;-73
2022/07/08 04:50:19;;;;;;;8.02;5.45;;;;;;;24.75;46.52;94797.66;5126665;27;20051;-73
2022/07/08 04:52:45;;;;;;;9.82;6.35;;;;;;;23.80;48.10;94794.03;5101392;27;20020;-75
2022/07/08 04:55:27;;;;;;;6.40;5.70;;;;;;;22.88;51.02;94811.66;5087915;27;20046;-74
2022/07/08 04:57:54;;;;;;;8.35;5.60;;;;;;;23.09;51.40;94806.16;5119995;27;20029;-72
2022/07/08 05:00:20;;;;;;;8.52;5.95;;;;;;;23.24;50.60;94805.97;5139633;27;20042;-74
2022/07/08 05:02:45;;;;;;;6.60;5.90;;;;;;;23.14;51.28;94803.72;5134317;27;20226;-72
2022/07/08 05:05:11;;;;;;;10.10;6.30;;;;;;;23.05;51.51;94815.53;5131843;27;20034;-72
2022/07/08 05:07:36;;;;;;;8.43;5.70;;;;;;;22.93;52.07;94814.50;5113275;27;20026;-72
2022/07/08 05:10:02;;;;;;;11.20;6.28;;;;;;;22.81;52.97;94810.81;5148184;27;20035;-72
2022/07/08 05:12:27;;;;;;;12.52;6.90;;;;;;;22.77;52.36;94809.59;5128262;27;20068;-75
2022/07/08 05:14:53;;;;;;;8.98;6.60;;;;;;;22.48;53.19;94803.63;5098145;27;20031;-74
2022/07/08 05:17:18;;;;;;;10.23;6.43;;;;;;;22.57;53.00;94805.09;5129140;27;20023;-73
2022/07/08 05:19:44;;;;;;;8.07;5.93;;;;;;;22.56;53.63;94806.09;5133696;27;20028;-73
2022/07/08 05:22:10;;;;;;;8.85;6.60;;;;;;;22.46;53.20;94798.56;5113891;27;20030;-73
2022/07/08 05:24:35;;;;;;;10.27;6.90;;;;;;;22.43;54.10;94808.75;5131306;27;20027;-73
2022/07/08 05:27:00;;;;;;;13.80;7.03;;;;;;;22.36;54.15;94800.75;5132272;27;20023;-73
2022/07/08 05:29:26;;;;;;;9.38;7.00;;;;;;;22.36;54.46;94810.53;5130786;27;20042;-73
2022/07/08 05:31:53;;;;;;;8.40;7.13;;;;;;;22.40;53.49;94809.09;5130499;27;20500;-73
2022/07/08 05:34:20;;;;;;;11.45;6.70;;;;;;;22.38;53.53;94813.81;5133027;27;20035;-73
2022/07/08 05:36:46;;;;;;;9.65;6.68;;;;;;;22.39;53.36;94808.31;5121758;27;20061;-73
2022/07/08 05:39:11;;;;;;;8.82;6.72;;;;;;;22.44;52.76;94805.06;5139204;27;20039;-73
2022/07/08 05:41:37;;;;;;;7.32;6.10;;;;;;;;;;5111748;27;20020;-73
2022/07/08 05:44:03;;;;;;;8.45;6.70;;;;;;;22.55;53.43;94803.66;5142217;27;20038;-73
2022/07/08 05:46:28;;;;;;;7.55;6.70;;;;;;;22.63;52.38;94806.94;5116634;27;20030;-73
2022/07/08 05:48:54;;;;;;;7.10;6.40;;;;;;;22.55;53.24;94806.31;5132069;27;20100;-73
2022/07/08 05:51:19;;;;;;;7.78;6.55;;;;;;;22.52;53.38;94802.22;5104882;27;20040;-73
2022/07/08 05:53:44;;;;;;;9.95;6.63;;;;;;;22.64;53.15;94800.59;5112943;27;20042;-73
2022/07/08 05:56:10;;;;;;;10.93;7.32;;;;;;;22.63;53.51;94793.69;5129876;27;20031;-73
2022/07/08 05:58:35;;;;;;;8.98;6.90;;;;;;;22.66;52.61;94798.59;5110214;27;20039;-73
2022/07/08 06:01:02;;;;;;;8.07;6.32;;;;;;;22.70;52.51;94789.22;5125663;27;20080;-73
2022/07/08 06:03:28;;;;;;;11.63;7.10;;;;;;;22.60;52.40;94794.09;5130857;27;20027;-73
2022/07/08 06:05:54;;;;;;;14.82;6.80;;;;;;;22.47;52.97;94788.78;5118324;27;20049;-73
2022/07/08 06:08:19;;;;;;;12.55;6.90;;;;;;;22.62;53.23;94794.72;5127665;27;20019;-73
2022/07/08 06:10:45;;;;;;;9.80;6.00;;;;;;;22.73;53.06;94794.13;5109529;28;20047;-73
2022/07/08 06:13:10;;;;;;;8.70;6.55;;;;;;;22.61;53.18;94793.06;5098551;27;20564;-75
2022/07/08 06:15:35;;;;;;;9.23;6.55;;;;;;;22.83;52.94;94800.84;5130045;27;20038;-73
2022/07/08 06:18:01;;;;;;;8.57;6.72;;;;;;;22.63;54.06;94799.00;5119721;27;20027;-73
2022/07/08 06:20:26;;;;;;;9.20;6.90;;;;;;;22.54;53.60;94794.91;5127010;27;20409;-73
2022/07/08 06:22:52;;;;;;;6.88;6.28;;;;;;;22.69;53.32;94800.81;5132484;27;20027;-73
2022/07/08 06:25:18;;;;;;;9.45;6.25;;;;;;;22.86;53.81;94795.94;5130965;27;20023;-73
2022/07/08 06:27:43;;;;;;;10.15;6.20;;;;;;;23.02;53.43;94791.31;5099376;27;20024;-73
2022/07/08 06:30:09;;;;;;;7.88;6.60;;;;;;;23.03;53.02;94784.97;5094974;27;20042;-73
2022/07/08 06:32:34;;;;;;;10.70;6.50;;;;;;;23.05;53.08;94783.75;5128464;27;20030;-73
2022/07/08 06:35:00;;;;;;;7.55;6.35;;;;;;;23.17;52.44;94779.44;5128183;27;20458;-73
2022/07/08 06:37:25;;;;;;;7.95;6.38;;;;;;;23.40;52.10;94783.50;5125640;27;20027;-73
2022/07/08 06:39:51;;;;;;;9.88;5.80;;;;;;;23.61;50.92;94774.47;5115355;27;20039;-73
2022/07/08 06:42:19;;;;;;;9.93;7.00;;;;;;;23.70;50.54;94767.13;5123791;27;20026;-73
2022/07/08 06:44:45;;;;;;;8.02;6.28;;;;;;;23.74;50.53;94765.72;5131156;27;20043;-74
2022/07/08 06:47:11;;;;;;;11.98;7.30;;;;;;;23.73;50.68;94759.56;5131691;27;20031;-74
2022/07/08 06:49:37;;;;;;;8.10;6.25;;;;;;;23.85;50.18;94762.41;5127273;27;20108;-73
2022/07/08 06:52:03;;;;;;;11.75;6.03;;;;;;;23.96;50.24;94756.44;5107429;27;20050;-75
2022/07/08 06:54:37;;;;;;;8.73;6.72;;;;;;;24.19;49.80;94755.91;5094999;27;20038;-74
2022/07/08 06:57:09;;;;;;;9.98;6.43;;;;;;;24.29;49.32;94760.75;5132270;27;20050;-75
2022/07/08 06:59:36;;;;;;;10.55;5.50;;;;;;;24.39;48.84;94747.81;5108462;27;20500;-74
2022/07/08 07:02:01;;;;;;;8.30;5.47;;;;;;;24.56;48.87;94745.50;5129696;27;20476;-74
2022/07/08 07:04:27;;;;;;;7.78;5.60;;;;;;;24.69;48.09;94741.94;5112022;27;20033;-74
2022/07/08 07:06:53;;;;;;;10.52;5.50;;;;;;;24.81;47.56;94740.19;5131663;27;20023;-74
2022/07/08 07:09:18;;;;;;;6.90;5.50;;;;;;;24.83;47.02;94735.50;5130871;27;20439;-74
2022/07/08 07:11:44;;;;;;;9.95;5.68;;;;;;;24.92;47.50;94739.50;5129265;27;20027;-74
2022/07/08 07:14:09;;;;;;;7.75;5.35;;;;;;;25.02;46.90;94746.13;5131550;27;20037;-74
2022/07/08 07:16:35;;;;;;;11.43;5.72;;;;;;;25.06;47.52;94726.09;5128991;27;20023;-74
2022/07/08 07:19:00;;;;;;;9.45;5.93;;;;;;;25.25;46.67;94735.75;5129984;27;20215;-74
2022/07/08 07:21:25;;;;;;;6.82;5.75;;;;;;;25.32;45.84;94728.50;5128658;27;20477;-74
2022/07/08 07:23:51;;;;;;;7.10;5.25;;;;;;;25.40;45.96;94725.56;5112347;27;20039;-74
2022/07/08 07:26:16;;;;;;;7.25;5.50;;;;;;;25.47;46.40;94725.50;5114858;27;20032;-74
2022/07/08 07:28:42;;;;;;;5.80;5.18;;;;;;;25.55;46.15;94727.06;5127921;27;20416;-74
2022/07/08 07:31:08;;;;;;;8.60;5.30;;;;;;;25.62;45.90;94725.13;5114140;27;20051;-74
2022/07/08 07:33:33;;;;;;;9.57;4.50;;;;;;;25.64;44.98;94728.38;5104529;27;20095;-74
2022/07/08 07:35:59;;;;;;;6.32;5.30;;;;;;;25.34;44.67;94742.38;5119740;27;20424;-74
2022/07/08 07:38:24;;;;;;;5.57;4.68;;;;;;;25.38;43.92;94732.97;5120128;27;20516;-74
2022/07/08 07:40:50;;;;;;;6.78;4.70;;;;;;;25.45;44.69;94742.69;5103866;28;20032;-74
2022/07/08 07:43:15;;;;;;;10.82;5.20;;;;;;;25.47;44.94;94730.81;5116637;27;20454;-74
2022/07/08 07:45:41;;;;;;;9.23;4.95;;;;;;;25.54;44.84;94733.38;5107489;27;20071;-74
2022/07/08 07:48:06;;;;;;;8.52;5.30;;;;;;;25.62;45.24;94738.41;5116470;27;20031;-74
2022/07/08 07:50:32;;;;;;;7.88;5.85;;;;;;;25.65;44.89;94737.97;5120780;28;20496;-74
2022/07/08 07:52:57;;;;;;;9.75;5.60;;;;;;;25.83;45.26;94738.00;5131503;27;20019;-74
2022/07/08 07:55:22;;;;;;;5.00;4.07;;;;;;;25.94;44.10;94741.75;5128144;28;20066;-74
2022/07/08 07:57:48;;;;;;;7.78;3.55;;;;;;;25.98;42.57;94748.25;5112763;28;20027;-74
2022/07/08 08:00:15;;;;;;;3.80;3.05;;;;;;;26.00;42.50;94742.72;5134790;27;20087;-74
2022/07/08 08:02:41;;;;;;;5.65;3.55;;;;;;;25.95;41.27;94738.03;5112342;28;20489;-74
2022/07/08 08:05:06;;;;;;;5.88;3.65;;;;;;;25.92;42.46;94730.50;5122958;27;20031;-74
2022/07/08 08:07:32;;;;;;;3.88;3.40;;;;;;;26.07;42.09;94740.75;5132225;27;20038;-74
2022/07/08 08:09:57;;;;;;;4.55;3.67;;;;;;;26.07;41.92;94740.75;5126058;27;20070;-74
2022/07/08 08:12:23;;;;;;;4.90;3.60;;;;;;;25.97;43.43;94735.19;5133967;27;20019;-74
2022/07/08 08:14:48;;;;;;;5.93;4.22;;;;;;;26.07;42.17;94740.75;5140448;27;20118;-74
2022/07/08 08:17:14;;;;;;;5.82;3.95;;;;;;;25.98;42.77;94731.47;5133024;27;20476;-74
2022/07/08 08:19:39;;;;;;;4.88;3.90;;;;;;;26.13;43.20;94739.03;5128119;27;20472;-74
2022/07/08 08:22:05;;;;;;;7.88;4.50;;;;;;;26.23;41.30;94742.78;5113530;27;20046;-74
2022/07/08 08:24:30;;;;;;;6.25;3.85;;;;;;;26.29;42.61;94739.22;5129944;27;20532;-74
2022/07/08 08:26:56;;;;;;;4.47;4.07;;;;;;;26.44;41.85;94738.00;5115247;27;20028;-74
2022/07/08 08:29:21;;;;;;;4.85;4.20;;;;;;;26.50;40.81;94740.59;5118029;27;20031;-74
2022/07/08 08:31:47;;;;;;;4.95;3.90;;;;;;;26.58;42.04;94736.81;5117745;27;20039;-74
2022/07/08 08:34:12;;;;;;;6.65;3.88;;;;;;;26.34;41.49;94724.44;5095555;27;20031;-74
2022/07/08 08:36:38;;;;;;;6.25;3.67;;;;;;;26.28;42.13;94729.63;5133125;27;20052;-74
2022/07/08 08:39:03;;;;;;;6.07;3.35;;;;;;;26.35;40.80;94726.03;5116079;27;20386;-73
2022/07/08 08:41:29;;;;;;;5.20;3.80;;;;;;;26.38;40.57;94722.94;5097592;27;20031;-75
2022/07/08 08:43:55;;;;;;;5.97;3.50;;;;;;;26.44;41.90;94720.19;5097489;27;20106;-74
2022/07/08 08:46:22;;;;;;;5.47;3.38;;;;;;;26.64;40.83;94724.44;5132928;27;20120;-74
2022/07/08 08:48:48;;;;;;;5.07;3.80;;;;;;;26.61;41.02;94714.22;5114242;27;20136;-74
2022/07/08 08:51:13;;;;;;;5.40;3.95;;;;;;;26.60;40.45;94718.72;5094119;27;20142;-74
2022/07/08 08:53:44;;;;;;;4.15;3.67;;;;;;;26.68;40.81;94706.94;5094377;28;20069;-74
2022/07/08 08:56:10;;;;;;;4.00;3.60;;;;;;;26.80;41.05;94706.94;5095078;28;20031;-75
2022/07/08 08:58:40;;;;;;;8.95;3.75;;;;;;;26.84;41.86;94708.91;5114424;28;20376;-75
2022/07/08 09:01:07;;;;;;;4.50;3.30;;;;;;;26.72;38.11;94711.56;5113872;28;20076;-75
2022/07/08 09:03:32;;;;;;;4.28;3.30;;;;;;;26.74;40.61;94701.50;5092923;28;20028;-75
2022/07/08 09:05:58;;;;;;;4.65;3.28;;;;;;;26.90;39.53;94696.53;5076808;28;20046;-75
2022/07/08 09:08:23;;;;;;;5.43;3.72;;;;;;;26.93;39.06;94694.19;5093803;28;20016;-74
2022/07/08 09:10:49;;;;;;;4.28;3.88;;;;;;;26.83;38.88;94699.31;5093729;28;20031;-74
2022/07/08 09:13:15;;;;;;;4.93;3.80;;;;;;;26.64;39.52;94695.13;5093262;28;20028;-74
2022/07/08 09:15:41;;;;;;;6.47;3.90;;;;;;;26.71;39.73;94693.94;5093871;28;20051;-74
2022/07/08 09:18:11;;;;;;;3.95;3.65;;;;;;;26.55;37.41;94689.31;5113561;28;20059;-75
2022/07/08 09:20:47;;;;;;;5.00;3.70;;;;;;;26.60;39.17;94681.44;5078978;28;20019;-75
2022/07/08 09:23:15;;;;;;;5.78;3.63;;;;;;;26.72;39.18;94678.81;5112569;28;20038;-75
2022/07/08 09:25:41;;;;;;;4.88;3.53;;;;;;;26.65;39.30;94667.44;5114145;28;20028;-74
2022/07/08 09:28:06;;;;;;;5.70;4.00;;;;;;;26.81;39.62;94666.75;5112389;28;20039;-75
2022/07/08 09:30:31;;;;;;;8.50;3.50;;;;;;;26.93;39.60;94667.56;5113858;28;20110;-74
2022/07/08 09:33:01;;;;;;;5.22;3.45;;;;;;;27.05;39.29;94672.91;5112289;28;20031;-75
2022/07/08 09:35:33;;;;;;;4.18;3.35;;;;;;;27.09;38.88;94665.25;5095592;28;20564;-75
2022/07/08 09:38:05;;;;;;;4.10;3.70;;;;;;;27.03;38.69;94669.66;5113354;28;20106;-75
2022/07/08 09:40:31;;;;;;;4.60;3.40;;;;;;;27.21;38.72;94666.06;5113285;27;20520;-75
2022/07/08 09:42:56;;;;;;;4.13;3.33;;;;;;;27.25;38.29;94645.09;5112082;28;20106;-75
2022/07/08 09:45:32;;;;;;;4.50;3.30;;;;;;;27.35;38.31;94645.28;5095119;28;20031;-75
2022/07/08 09:48:07;;;;;;;4.72;3.55;;;;;;;27.41;38.29;94649.66;5112356;28;20462;-75
2022/07/08 09:50:43;;;;;;;3.85;3.45;;;;;;;27.45;37.93;94639.38;5113008;28;20116;-75
2022/07/08 09:53:15;;;;;;;3.85;3.20;;;;;;;27.44;35.86;94643.06;5112085;28;20062;-75
2022/07/08 09:55:43;;;;;;;3.60;2.92;;;;;;;27.47;35.57;94647.91;5112084;28;20432;-75
2022/07/08 09:58:10;;;;;;;4.05;2.88;;;;;;;27.48;35.64;94639.69;5112994;28;20043;-75
2022/07/08 10:00:35;;;;;;;3.17;2.88;;;;;;;27.47;34.40;94647.91;5111989;28;20328;-75
2022/07/08 10:03:02;;;;;;;3.90;2.88;;;;;;;27.37;34.97;94637.88;5094764;28;20544;-75
2022/07/08 10:05:28;;;;;;;4.20;3.67;;;;;;;27.19;36.22;94641.47;5077965;28;20032;-75
2022/07/08 10:07:53;;;;;;;3.97;3.60;;;;;;;27.05;37.46;94637.41;5094564;28;20058;-75
2022/07/08 10:10:19;;;;;;;3.92;3.20;;;;;;;26.96;36.62;94636.97;5111657;28;20443;-74
2022/07/08 10:12:44;;;;;;;6.45;3.45;;;;;;;27.08;37.56;94623.63;5111582;28;20023;-75
2022/07/08 10:15:10;;;;;;;4.25;3.53;;;;;;;26.96;37.33;94634.31;5094380;28;20027;-75
2022/07/08 10:17:37;;;;;;;3.80;3.40;;;;;;;26.93;38.34;94632.09;5077577;28;20042;-74
2022/07/08 10:20:03;;;;;;;3.50;3.20;;;;;;;26.85;35.88;94611.13;5111553;28;20027;-75
2022/07/08 10:22:29;;;;;;;4.40;3.30;;;;;;;27.00;36.82;94608.81;5111365;28;20420;-75
2022/07/08 10:24:54;;;;;;;4.57;3.03;;;;;;;27.11;35.50;94608.00;5093620;28;20489;-75
2022/07/08 10:27:23;;;;;;;4.72;3.05;;;;;;;27.25;37.47;94608.56;5094600;28;20032;-75
2022/07/08 10:29:49;;;;;;;4.35;3.67;;;;;;;27.16;38.43;94601.97;5094050;28;20032;-75
2022/07/08 10:32:26;;;;;;;6.40;3.42;;;;;;;27.31;38.28;94601.50;5111262;28;20039;-75
2022/07/08 10:35:11;;;;;;;7.32;3.97;;;;;;;27.05;38.47;94594.78;5094268;28;20040;-75
2022/07/08 10:37:54;;;;;;;3.97;3.17;;;;;;;27.02;38.51;94601.38;5111103;28;20027;-75
2022/07/08 10:40:38;;;;;;;4.85;3.20;;;;;;;27.25;37.19;94600.56;5112611;28;20401;-75
2022/07/08 10:43:18;;;;;;;4.93;3.00;;;;;;;27.41;36.11;94599.00;5112156;28;20042;-75
2022/07/08 10:46:11;;;;;;;3.92;3.20;;;;;;;27.53;36.99;94605.13;5110940;28;20031;-75
2022/07/08 10:48:39;;;;;;;4.75;3.42;;;;;;;27.58;36.24;94607.91;5109485;28;20130;-75
2022/07/08 10:51:05;;;;;;;3.67;3.28;;;;;;;27.73;36.95;94601.22;5110473;28;20052;-75
2022/07/08 10:53:49;;;;;;;4.45;3.10;;;;;;;27.61;36.69;94602.09;5093736;28;20038;-75
2022/07/08 10:56:53;;;;;;;3.22;2.90;;;;;;;27.73;35.68;94609.22;5110908;28;20031;-75
2022/07/08 10:59:35;;;;;;;3.53;2.67;;;;;;;27.58;36.28;94597.22;5111992;28;20038;-75
2022/07/08 11:02:09;;;;;;;4.55;2.90;;;;;;;27.54;37.17;94593.41;5110597;28;20035;-75
2022/07/08 11:04:34;;;;;;;5.03;3.03;;;;;;;27.50;37.80;94586.13;5110595;28;20500;-75
2022/07/08 11:07:20;;;;;;;3.80;3.00;;;;;;;27.39;37.41;94582.44;5111783;28;20046;-75
2022/07/08 11:09:50;;;;;;;4.18;2.70;;;;;;;27.33;35.72;94586.88;5110403;28;20420;-75
2022/07/08 11:12:20;;;;;;;3.25;2.30;;;;;;;27.11;36.33;94589.34;5076657;28;20036;-75
2022/07/08 11:14:49;;;;;;;3.67;2.47;;;;;;;26.90;36.16;94581.94;5093732;28;20036;-75
2022/07/08 11:17:18;;;;;;;6.82;2.40;;;;;;;26.86;36.60;94583.47;5076703;28;20063;-75
2022/07/08 11:19:44;;;;;;;2.92;2.28;;;;;;;26.86;36.63;94572.81;5111442;28;20032;-74
2022/07/08 11:22:09;;;;;;;2.95;2.60;;;;;;;26.93;36.92;94576.16;5093474;28;20076;-75
2022/07/08 11:24:42;;;;;;;2.70;2.50;;;;;;;26.74;36.72;94581.63;5110240;28;20050;-75
2022/07/08 11:27:07;;;;;;;3.58;2.40;;;;;;;26.71;37.34;94576.75;5093328;28;20038;-75
2022/07/08 11:29:33;;;;;;;3.15;2.50;;;;;;;26.96;36.67;94573.81;5110067;28;20493;-75
2022/07/08 11:32:00;;;;;;;18.10;3.65;;;;;;;26.77;38.01;94566.19;5093271;28;20016;-76